Alma Center, Wisconsin
Current Conditions -  °F | °C
As of 6:15 AM on Friday 24 Oct 2014 (Local Time) from KBCK Reporting Station
Haze Haze  
Wind Chill: 47°   Ceiling: 200
Heat Index: 49°   Visibility: 0.75mi
Dew Point: 49°   Wind: 5mph
Humidity: 100%   Direction: 170°S
Pressure: 30"   Gusts: NA
Location:  44.44°N, 90.91°W
Report Text: KBCK 241115Z AUTO 17004KT 3/4SM BR OVC002 10/10 A3000 RMK AO2 T00950095
Loading
Personal Weather Stations






























Interactive Weather Map
Tropical Storm Tracking
New forecast layout! Learn more

10-Day Weather Forecast

Advertisements
Track Severe Weather on mobile